Portada
METAR-TAF:

METAR-TAF

Aeroports :

Frankfort, Michigan, Estats Units d'Amèrica

latitud: 44-37-30N, longitud: 086-12-02W, altitud: 193 m

Observació

L'informe es va fer fa 15 hores i 52 minuts, a les 15:15 UTC
Vent 5 kt del Sud/Sud-Est
Temperatura 6°C
Humitat 100%
Pressió 1009 hPa
Visibilitat: 16.1 km
Núvols disperses a una alçada de 10000 ft
Cel ennuvolat a una alçada de 12000 ft

METAR: KFKS 201515Z AUTO 15005KT 10SM SCT100 BKN120 06/06 A2979 RMK AO2 T00600060

Hora: 02:07 (07:07 UTC)


TAF: manca

Observacions i pronòstics meteorològics de més de 4000 aeroports (METAR i TAF).

Les estacions disponibles són els punts grocs i vermells al mapa.

Posi el ratolí al punt desitjat per veure el nom de l'estació.

Feu clic per veure les observacions i els pronòstics meteorològics.

Per canviar el mapa: feu clic els botons verds amb una creu de color negre per apropar; al botó verd amb un guió per allunyar la imatge; o en les fletxes verdes per a mapes adjacents.


METAR-TAF: